Time;durP1;ratioP1;P1;durP2;ratioP2;P2;SDS_P1;SDS_P2;PMS_P1;PMS_P2;Temp;Humidity;BMP_temperature;BMP_pressure;BME280_temperature;BME280_humidity;BME280_pressure;Samples;Min_cycle;Max_cycle;Signal;HPM_P1;HPM_P2
2023/04/02 00:02:33;;;;;;;1.30;1.20;;;;;;;11.26;78.25;97986.38;5075804;28;39185;-79
2023/04/02 00:05:48;;;;;;;0.97;0.80;;;;;;;11.34;78.33;97999.88;5092488;28;40732;-82
2023/04/02 00:08:26;;;;;;;1.40;0.90;;;;;;;11.27;78.24;97982.75;5092546;28;42669;-82
2023/04/02 00:10:56;;;;;;;1.10;1.07;;;;;;;11.32;78.16;98004.47;5092435;28;41311;-81
2023/04/02 00:13:35;;;;;;;1.57;1.27;;;;;;;11.24;78.69;97990.97;5092850;28;40682;-80
2023/04/02 00:16:06;;;;;;;1.10;1.00;;;;;;;11.28;78.25;98010.97;5093172;28;42744;-81
2023/04/02 00:18:37;;;;;;;1.10;1.00;;;;;;;11.28;78.17;98005.66;5075333;28;41686;-80
2023/04/02 00:21:24;;;;;;;1.07;0.93;;;;;;;11.24;78.77;98012.19;5089137;28;43262;-81
2023/04/02 00:23:54;;;;;;;1.90;1.10;;;;;;;11.28;78.41;98021.56;5090344;28;40989;-82
2023/04/02 00:26:25;;;;;;;0.90;0.90;;;;;;;11.21;78.33;98009.75;5075421;28;42353;-79
2023/04/02 00:28:53;;;;;;;0.90;0.90;;;;;;;11.31;78.40;98021.31;5074959;28;43094;-80
2023/04/02 00:31:21;;;;;;;1.13;0.90;;;;;;;11.31;78.57;98027.47;5093683;28;42204;-80
2023/04/02 00:33:50;;;;;;;2.37;1.10;;;;;;;11.31;78.62;98037.22;5075395;28;38746;-79
2023/04/02 00:36:21;;;;;;;1.30;1.20;;;;;;;11.30;78.59;98025.78;5075554;28;40712;-80
2023/04/02 00:38:49;;;;;;;2.80;1.10;;;;;;;11.20;78.49;98008.06;5090412;28;43915;-80
2023/04/02 00:41:22;;;;;;;1.10;1.10;;;;;;;11.30;78.43;98023.13;5075177;28;41239;-82
2023/04/02 00:43:53;;;;;;;2.10;1.17;;;;;;;11.30;78.73;98025.78;5075434;28;38763;-80
2023/04/02 00:46:26;;;;;;;1.57;1.07;;;;;;;11.32;78.40;98030.97;5074970;28;42370;-81
2023/04/02 00:48:58;;;;;;;1.30;1.20;;;;;;;11.31;78.47;98024.81;5075332;28;41662;-82
2023/04/02 00:51:32;;;;;;;2.50;1.17;;;;;;;11.28;78.63;98024.22;5075300;28;41241;-80
2023/04/02 00:54:04;;;;;;;1.43;1.10;;;;;;;11.32;78.47;98038.91;5091739;28;40028;-79
2023/04/02 00:56:37;;;;;;;1.20;1.10;;;;;;;11.32;78.53;98038.91;5075031;28;41704;-79
2023/04/02 00:59:16;;;;;;;1.83;1.17;;;;;;;11.33;78.35;98035.31;5090319;28;43511;-79
2023/04/02 01:01:45;;;;;;;1.20;1.10;;;;;;;11.32;78.48;98038.91;5089178;28;42179;-82
2023/04/02 01:04:30;;;;;;;1.30;1.20;;;;;;;11.33;78.45;98040.59;5074752;28;38827;-82
2023/04/02 01:07:05;;;;;;;2.63;1.10;;;;;;;11.32;78.30;98054.81;5075101;28;40693;-80
2023/04/02 01:09:59;;;;;;;1.03;0.97;;;;;;;11.34;78.32;98047.59;5074696;28;42054;-82
2023/04/02 01:12:42;;;;;;;2.00;1.27;;;;;;;11.28;78.23;98037.47;5075086;28;41215;-82
2023/04/02 01:15:17;;;;;;;1.83;1.30;;;;;;;11.35;78.47;98055.44;5074096;28;38834;-83
2023/04/02 01:17:59;;;;;;;0.80;0.80;;;;;;;11.33;78.46;98049.41;5075208;28;41800;-82
2023/04/02 01:21:00;;;;;;;1.20;1.10;;;;;;;11.34;78.63;98048.44;5074421;28;42923;-80
2023/04/02 01:23:35;;;;;;;1.93;1.30;;;;;;;11.34;78.67;98064.34;5088406;28;41205;-80
2023/04/02 01:26:11;;;;;;;1.73;1.10;;;;;;;11.30;78.49;98048.78;5074580;28;38633;-82
2023/04/02 01:28:59;;;;;;;1.30;1.20;;;;;;;11.36;78.48;98057.13;5074923;28;40814;-82
2023/04/02 01:31:28;;;;;;;1.50;1.00;;;;;;;11.29;78.44;98050.59;5088633;28;42860;-81
2023/04/02 01:33:57;;;;;;;2.20;1.30;;;;;;;11.31;78.72;98061.09;5091147;28;42129;-81
2023/04/02 01:36:33;;;;;;;1.57;1.27;;;;;;;11.32;78.83;98060.13;5091741;28;38775;-79
2023/04/02 01:39:06;;;;;;;2.50;1.20;;;;;;;11.30;79.05;98062.03;5074302;28;40505;-80
2023/04/02 01:41:43;;;;;;;1.60;1.50;;;;;;;11.25;79.05;98061.56;5074823;28;42815;-83
2023/04/02 01:44:17;;;;;;;1.97;1.50;;;;;;;11.27;79.31;98078.19;5090098;28;43100;-82
2023/04/02 01:46:48;;;;;;;2.10;1.33;;;;;;;11.28;79.45;98071.91;5074431;28;38761;-80
2023/04/02 01:49:21;;;;;;;2.40;1.57;;;;;;;11.27;79.59;98083.47;5074276;28;40771;-81
2023/04/02 01:51:55;;;;;;;2.13;1.90;;;;;;;11.10;79.77;98061.81;5088338;28;42621;-82
2023/04/02 01:54:27;;;;;;;3.03;1.70;;;;;;;11.22;80.14;98085.66;5073734;28;41180;-82
2023/04/02 01:56:57;;;;;;;1.67;1.40;;;;;;;11.13;79.79;98064.19;5088543;28;40680;-83
2023/04/02 01:59:27;;;;;;;1.60;1.50;;;;;;;11.23;80.13;98082.06;5094773;28;41932;-82
2023/04/02 02:02:02;;;;;;;2.23;1.57;;;;;;;11.20;80.80;98087.59;5078120;28;42728;-82
2023/04/02 02:04:33;;;;;;;1.50;1.40;;;;;;;11.21;80.71;98083.97;5077345;28;41441;-79
2023/04/02 02:07:03;;;;;;;1.73;1.50;;;;;;;11.19;80.89;98091.19;5077489;28;38842;-81
2023/04/02 02:09:35;;;;;;;1.60;1.50;;;;;;;11.18;81.20;98090.34;5077129;28;40430;-82
2023/04/02 02:12:05;;;;;;;1.73;1.47;;;;;;;11.13;81.73;98096.00;5077772;28;41701;-82
2023/04/02 02:14:35;;;;;;;1.63;1.50;;;;;;;11.09;81.63;98097.19;5094063;28;42516;-81
2023/04/02 02:17:03;;;;;;;1.50;1.40;;;;;;;11.07;82.10;98100.94;5094641;28;39969;-80
2023/04/02 02:19:35;;;;;;;1.50;1.40;;;;;;;11.02;82.58;98103.06;5094567;28;42556;-82
2023/04/02 02:22:11;;;;;;;1.57;1.47;;;;;;;10.98;82.85;98101.63;5077887;28;41537;-83
2023/04/02 02:24:39;;;;;;;1.57;1.47;;;;;;;10.94;83.64;98114.25;5077274;28;41113;-82
2023/04/02 02:27:37;;;;;;;1.60;1.50;;;;;;;10.92;83.20;98116.19;5095639;28;39912;-82
2023/04/02 02:30:16;;;;;;;1.80;1.50;;;;;;;10.92;83.67;98117.97;5077619;28;40778;-82
2023/04/02 02:32:53;;;;;;;1.30;1.20;;;;;;;10.79;83.55;98104.81;5091479;28;43808;-82
2023/04/02 02:35:23;;;;;;;1.57;1.47;;;;;;;10.79;83.52;98107.47;5077442;28;41246;-81
2023/04/02 02:38:01;;;;;;;2.43;1.70;;;;;;;10.91;83.34;98124.22;5090939;28;40595;-79
2023/04/02 02:40:36;;;;;;;2.40;1.77;;;;;;;10.89;83.80;98131.44;5076937;28;42006;-83
2023/04/02 02:43:10;;;;;;;2.40;1.83;;;;;;;10.85;83.81;98122.91;5076790;28;41533;-81
2023/04/02 02:45:43;;;;;;;2.23;2.03;;;;;;;10.75;84.21;98114.81;5077561;28;40867;-81
2023/04/02 02:48:16;;;;;;;1.70;1.57;;;;;;;10.85;83.77;98136.16;5077099;28;39867;-80
2023/04/02 02:50:45;;;;;;;1.80;1.70;;;;;;;10.85;83.88;98136.16;5077011;28;41011;-80
2023/04/02 02:53:19;;;;;;;2.43;2.30;;;;;;;10.66;83.67;98109.34;5076508;28;41718;-80
2023/04/02 02:55:51;;;;;;;2.30;2.10;;;;;;;10.87;83.76;98144.84;5093962;28;40890;-82
2023/04/02 02:58:26;;;;;;;2.10;1.90;;;;;;;10.85;83.76;98141.44;5091252;28;39801;-83
2023/04/02 03:01:04;;;;;;;1.53;1.43;;;;;;;10.86;83.87;98137.84;5076758;28;41008;-82
2023/04/02 03:03:35;;;;;;;2.73;1.70;;;;;;;10.83;83.89;98132.78;5076960;28;42078;-81
2023/04/02 03:06:08;;;;;;;1.60;1.47;;;;;;;10.85;83.76;98152.06;5076357;28;41248;-83
2023/04/02 03:08:43;;;;;;;1.80;1.70;;;;;;;10.86;83.75;98148.44;5091097;28;40025;-81
2023/04/02 03:11:23;;;;;;;1.73;1.63;;;;;;;10.74;84.11;98133.47;5090332;28;41672;-81
2023/04/02 03:13:54;;;;;;;2.10;1.70;;;;;;;10.76;84.54;98142.13;5091806;28;43701;-81
2023/04/02 03:16:28;;;;;;;1.70;1.60;;;;;;;10.78;84.60;98156.94;5076410;28;42181;-83
2023/04/02 03:19:03;;;;;;;2.00;1.87;;;;;;;10.76;84.89;98153.56;5091721;28;40105;-84
2023/04/02 03:21:36;;;;;;;1.70;1.60;;;;;;;10.75;84.78;98156.34;5076702;28;40763;-81
2023/04/02 03:24:09;;;;;;;2.30;2.10;;;;;;;10.73;85.40;98158.25;5075974;28;41873;-82
2023/04/02 03:26:41;;;;;;;1.80;1.70;;;;;;;10.71;85.37;98161.00;5093243;28;41430;-81
2023/04/02 03:29:16;;;;;;;1.87;1.53;;;;;;;10.72;85.80;98172.47;5076742;28;38756;-81
2023/04/02 03:31:50;;;;;;;2.03;1.83;;;;;;;10.72;85.14;98170.66;5076671;28;41036;-81
2023/04/02 03:34:25;;;;;;;1.90;1.70;;;;;;;10.68;85.44;98177.13;5075941;28;41690;-80
2023/04/02 03:36:59;;;;;;;1.80;1.60;;;;;;;10.74;85.41;98186.44;5076112;28;42564;-82
2023/04/02 03:39:33;;;;;;;1.60;1.50;;;;;;;10.77;84.95;98186.19;5075699;28;38991;-79
2023/04/02 03:42:07;;;;;;;2.33;1.60;;;;;;;10.80;84.94;98185.97;5089699;28;42637;-84
2023/04/02 03:44:39;;;;;;;1.60;1.50;;;;;;;10.74;85.03;98179.34;5076173;28;42447;-82
2023/04/02 03:47:14;;;;;;;2.27;1.40;;;;;;;10.83;84.58;98195.50;5093002;28;42109;-84
2023/04/02 03:49:48;;;;;;;1.40;1.30;;;;;;;10.86;84.70;98196.13;5092394;28;40062;-83
2023/04/02 03:52:23;;;;;;;2.83;1.27;;;;;;;10.51;84.11;98136.97;5089830;28;41831;-84
2023/04/02 03:54:51;;;;;;;1.60;1.50;;;;;;;10.90;84.01;98205.50;5092237;28;43022;-83
2023/04/02 03:57:26;;;;;;;2.00;1.80;;;;;;;10.91;83.96;98203.69;5092815;28;42562;-83
2023/04/02 04:00:00;;;;;;;1.50;1.40;;;;;;;10.94;83.88;98208.78;5092182;28;39737;-81
2023/04/02 04:02:44;;;;;;;1.90;1.80;;;;;;;10.98;83.56;98213.75;5075966;28;40777;-83
2023/04/02 04:05:26;;;;;;;1.33;1.23;;;;;;;10.99;83.49;98214.59;5092377;28;43706;-82
2023/04/02 04:08:01;;;;;;;1.07;1.00;;;;;;;11.01;83.37;98213.50;5075313;28;41591;-79
2023/04/02 04:10:30;;;;;;;1.60;1.50;;;;;;;10.93;83.26;98209.75;5090070;28;39860;-82
2023/04/02 04:13:06;;;;;;;0.93;0.93;;;;;;;11.04;83.04;98223.03;5092421;28;41867;-82
2023/04/02 04:15:38;;;;;;;1.67;1.40;;;;;;;11.04;83.18;98225.69;5075423;28;42700;-85
2023/04/02 04:18:18;;;;;;;1.60;1.50;;;;;;;11.05;83.29;98237.97;5075256;28;42059;-80
2023/04/02 04:20:55;;;;;;;2.20;1.50;;;;;;;11.05;83.58;98235.31;5074440;28;38480;-80
2023/04/02 04:23:30;;;;;;;1.83;1.73;;;;;;;10.94;83.15;98224.69;5075296;28;40716;-84
2023/04/02 04:26:08;;;;;;;1.37;1.27;;;;;;;11.03;83.46;98248.69;5075211;28;42067;-82
2023/04/02 04:28:47;;;;;;;2.30;1.60;;;;;;;11.04;83.28;98246.88;5075433;28;41521;-80
2023/04/02 04:31:23;;;;;;;2.07;1.20;;;;;;;11.05;83.30;98248.56;5075063;28;38549;-81
2023/04/02 04:34:02;;;;;;;1.70;1.60;;;;;;;11.05;83.30;98253.88;5090279;28;41758;-84
2023/04/02 04:36:40;;;;;;;1.93;1.80;;;;;;;11.07;83.42;98263.41;5092324;28;43118;-85
2023/04/02 04:39:20;;;;;;;1.70;1.60;;;;;;;10.94;83.16;98252.03;5075069;28;42345;-85
2023/04/02 04:41:52;;;;;;;1.57;1.47;;;;;;;11.02;83.59;98268.19;5075337;28;38732;-81
2023/04/02 04:44:24;;;;;;;1.90;1.50;;;;;;;11.02;83.73;98280.59;5091650;28;40468;-82
2023/04/02 04:47:01;;;;;;;1.73;1.63;;;;;;;11.02;83.76;98286.72;5090054;28;42873;-85
2023/04/02 04:49:36;;;;;;;2.30;1.47;;;;;;;11.01;83.80;98285.03;5074443;28;42221;-79
2023/04/02 04:52:10;;;;;;;1.70;1.60;;;;;;;11.01;83.84;98292.97;5089092;28;39859;-80
2023/04/02 04:54:41;;;;;;;2.60;1.43;;;;;;;11.00;83.74;98299.25;5090780;28;42565;-80
2023/04/02 04:57:22;;;;;;;1.50;1.40;;;;;;;10.91;83.83;98278.72;5088544;28;43313;-84
2023/04/02 04:59:57;;;;;;;1.50;1.40;;;;;;;10.99;83.87;98297.56;5074644;28;41429;-78
2023/04/02 05:02:31;;;;;;;1.80;1.70;;;;;;;10.91;83.82;98284.03;5088992;28;39979;-83
2023/04/02 05:05:04;;;;;;;2.10;1.50;;;;;;;10.98;84.16;98301.19;5091378;28;41947;-83
2023/04/02 05:07:44;;;;;;;1.40;1.30;;;;;;;11.00;84.34;98301.06;5088394;28;43098;-82
2023/04/02 05:10:18;;;;;;;2.13;1.70;;;;;;;11.04;83.91;98313.97;5091328;28;43153;-82
2023/04/02 05:12:54;;;;;;;1.17;1.17;;;;;;;11.03;83.60;98309.63;5088540;28;39978;-83
2023/04/02 05:15:27;;;;;;;1.47;1.37;;;;;;;11.08;83.75;98318.09;5091625;28;40678;-85
2023/04/02 05:18:16;;;;;;;1.93;1.60;;;;;;;11.03;83.59;98312.28;5088347;28;42724;-82
2023/04/02 05:20:51;;;;;;;1.30;1.20;;;;;;;11.10;83.54;98321.47;5088279;28;42327;-83
2023/04/02 05:23:26;;;;;;;1.60;1.50;;;;;;;11.11;83.75;98324.97;5074160;28;40371;-82
2023/04/02 05:26:02;;;;;;;1.30;1.20;;;;;;;11.12;83.73;98330.16;5074610;28;40812;-84
2023/04/02 05:28:39;;;;;;;1.70;1.60;;;;;;;11.14;83.39;98338.81;5074358;28;41879;-78
2023/04/02 05:31:12;;;;;;;1.93;1.60;;;;;;;11.14;83.66;98333.53;5088804;28;42158;-81
2023/04/02 05:33:46;;;;;;;1.87;1.60;;;;;;;11.16;83.35;98341.38;5078579;28;40122;-81
2023/04/02 05:36:22;;;;;;;1.50;1.40;;;;;;;11.20;83.20;98342.00;5078020;28;41702;-84
2023/04/02 05:38:56;;;;;;;1.20;1.10;;;;;;;11.24;83.22;98343.47;5093116;28;43727;-81
2023/04/02 05:41:37;;;;;;;1.30;1.20;;;;;;;11.28;83.07;98350.22;5078171;28;41156;-85
2023/04/02 05:44:09;;;;;;;1.70;1.30;;;;;;;11.27;83.07;98348.53;5093346;28;39824;-83
2023/04/02 05:46:45;;;;;;;1.80;1.70;;;;;;;11.30;82.90;98359.75;5094791;28;40644;-81
2023/04/02 05:49:23;;;;;;;2.23;2.03;;;;;;;11.32;83.34;98359.66;5077085;28;42870;-79
2023/04/02 05:51:58;;;;;;;1.70;1.60;;;;;;;11.34;82.99;98360.41;5078033;28;42151;-84
2023/04/02 05:54:31;;;;;;;2.77;1.90;;;;;;;11.36;82.95;98369.09;5077932;28;38515;-81
2023/04/02 05:57:04;;;;;;;2.77;1.60;;;;;;;11.36;83.02;98369.94;5091564;28;41925;-81
2023/04/02 05:59:37;;;;;;;1.50;1.40;;;;;;;11.39;83.02;98376.78;5076915;28;42043;-81
2023/04/02 06:02:17;;;;;;;1.70;1.60;;;;;;;11.39;83.08;98379.44;5077900;28;41405;-81
2023/04/02 06:04:51;;;;;;;1.67;1.57;;;;;;;11.38;82.90;98383.06;5094306;28;39928;-84
2023/04/02 06:07:23;;;;;;;2.60;1.93;;;;;;;11.28;82.89;98371.44;5077848;28;40842;-84
2023/04/02 06:09:58;;;;;;;2.80;2.37;;;;;;;11.39;83.62;98411.25;5077639;28;42026;-79
2023/04/02 06:12:30;;;;;;;1.00;0.90;;;;;;;11.21;81.87;98418.75;5077525;28;41990;-79
2023/04/02 06:15:00;;;;;;;0.67;0.60;;;;;;;10.88;80.60;98398.16;5076797;28;39747;-84
2023/04/02 06:17:42;;;;;;;0.40;0.40;;;;;;;10.79;80.46;98427.94;5077456;28;40802;-80
2023/04/02 06:20:15;;;;;;;0.30;0.30;;;;;;;10.45;80.54;98418.84;5077430;28;41688;-86
2023/04/02 06:22:45;;;;;;;0.30;0.30;;;;;;;10.29;81.55;98434.09;5077748;28;42342;-83
2023/04/02 06:25:20;;;;;;;0.73;0.40;;;;;;;10.16;82.34;98444.63;5093646;28;39004;-83
2023/04/02 06:27:50;;;;;;;0.40;0.40;;;;;;;10.10;82.49;98447.69;5077198;28;41791;-84
2023/04/02 06:30:24;;;;;;;0.60;0.50;;;;;;;10.04;82.69;98456.00;5091145;28;43519;-83
2023/04/02 06:32:53;;;;;;;0.33;0.30;;;;;;;9.81;82.59;98464.63;5077347;28;41346;-85
2023/04/02 06:35:23;;;;;;;0.30;0.30;;;;;;;9.62;83.15;98455.28;5094010;28;40326;-80
2023/04/02 06:38:07;;;;;;;0.73;0.40;;;;;;;9.67;82.79;98469.03;5077113;28;42064;-82
2023/04/02 06:40:42;;;;;;;0.33;0.30;;;;;;;9.60;83.23;98478.31;5091002;28;43156;-83
2023/04/02 06:43:35;;;;;;;0.77;0.70;;;;;;;9.46;83.05;98462.47;5051455;28;41024;-83
2023/04/02 06:46:28;;;;;;;1.03;0.43;;;;;;;9.35;83.73;98479.03;5077159;28;39034;-87
2023/04/02 06:49:13;;;;;;;0.87;0.40;;;;;;;9.36;83.33;98495.75;5092232;28;42395;-83
2023/04/02 06:51:44;;;;;;;0.97;0.47;;;;;;;9.38;83.41;98493.84;5077273;28;41742;-81
2023/04/02 06:54:16;;;;;;;0.40;0.40;;;;;;;9.42;83.37;98508.53;5092045;28;41959;-85
2023/04/02 06:56:49;;;;;;;0.30;0.30;;;;;;;9.35;83.86;98507.25;5076595;28;38774;-83
2023/04/02 06:59:25;;;;;;;1.40;0.30;;;;;;;9.39;83.88;98516.69;5076855;28;40817;-83
2023/04/02 07:01:57;;;;;;;0.33;0.30;;;;;;;9.35;83.71;98516.03;5076675;28;42178;-84
2023/04/02 07:04:26;;;;;;;0.63;0.40;;;;;;;9.24;82.93;98504.44;5092730;28;43038;-83
2023/04/02 07:06:55;;;;;;;0.30;0.30;;;;;;;9.34;82.74;98524.03;5076730;28;40254;-80
2023/04/02 07:09:29;;;;;;;0.40;0.40;;;;;;;9.45;82.70;98542.72;5092709;28;41481;-83
2023/04/02 07:12:00;;;;;;;0.40;0.40;;;;;;;9.47;82.50;98551.41;5090289;28;42577;-83
2023/04/02 07:14:28;;;;;;;0.50;0.50;;;;;;;9.46;82.01;98538.28;5076115;28;41238;-83
2023/04/02 07:16:56;;;;;;;0.33;0.33;;;;;;;9.60;81.08;98559.41;5076717;28;38835;-82
2023/04/02 07:19:23;;;;;;;0.40;0.40;;;;;;;9.50;81.03;98551.22;5076024;28;40875;-81
2023/04/02 07:21:57;;;;;;;1.03;0.60;;;;;;;9.28;80.60;98517.34;5076318;28;41557;-82
2023/04/02 07:24:32;;;;;;;0.60;0.40;;;;;;;9.52;80.13;98551.94;5076420;28;40944;-89
2023/04/02 07:27:00;;;;;;;0.43;0.30;;;;;;;9.60;80.19;98583.22;5075798;28;40398;-79
2023/04/02 07:29:28;;;;;;;0.40;0.40;;;;;;;9.78;79.83;98591.75;5076320;28;40303;-82
2023/04/02 07:31:56;;;;;;;0.40;0.40;;;;;;;9.94;79.19;98584.56;5093558;28;43605;-85
2023/04/02 07:34:23;;;;;;;0.30;0.30;;;;;;;9.90;79.21;98598.91;5092608;28;41103;-85
2023/04/02 07:36:51;;;;;;;0.57;0.40;;;;;;;9.84;79.39;98594.03;5093378;28;40156;-85
2023/04/02 07:39:19;;;;;;;0.33;0.33;;;;;;;10.04;78.86;98604.16;5092563;28;41760;-88
2023/04/02 07:41:57;;;;;;;0.37;0.37;;;;;;;10.14;78.91;98620.31;5076148;28;41891;-83
2023/04/02 07:44:25;;;;;;;0.43;0.40;;;;;;;10.20;78.40;98626.09;5092286;28;42371;-86
2023/04/02 07:46:53;;;;;;;0.40;0.40;;;;;;;10.17;78.30;98631.53;5075696;28;38979;-82
2023/04/02 07:49:21;;;;;;;0.67;0.30;;;;;;;10.17;78.41;98631.53;5092801;28;40661;-86
2023/04/02 07:51:49;;;;;;;0.70;0.30;;;;;;;10.09;79.14;98639.13;5075727;28;41732;-82
2023/04/02 07:54:17;;;;;;;0.40;0.40;;;;;;;10.18;79.11;98637.69;5092051;28;42315;-85
2023/04/02 07:56:45;;;;;;;0.77;0.40;;;;;;;10.21;78.28;98643.66;5093332;28;40865;-83
2023/04/02 07:59:14;;;;;;;0.47;0.40;;;;;;;10.17;78.56;98650.06;5075121;28;40457;-85
2023/04/02 08:01:42;;;;;;;0.40;0.40;;;;;;;10.14;77.93;98660.84;5092498;28;43038;-82
2023/04/02 08:04:18;;;;;;;0.40;0.40;;;;;;;10.02;77.84;98651.03;5075455;28;41325;-80
2023/04/02 08:06:47;;;;;;;0.40;0.40;;;;;;;10.08;78.00;98655.94;5089613;28;40921;-84
2023/04/02 08:09:16;;;;;;;0.37;0.37;;;;;;;10.17;78.00;98662.44;5075525;28;41147;-84
2023/04/02 08:11:45;;;;;;;0.30;0.30;;;;;;;10.17;77.18;98676.53;5092485;28;44086;-85
2023/04/02 08:14:14;;;;;;;0.30;0.30;;;;;;;10.30;77.33;98684.56;5074949;28;41108;-82
2023/04/02 08:16:47;;;;;;;0.20;0.20;;;;;;;10.33;77.24;98687.88;5075704;28;38782;-81
2023/04/02 08:19:16;;;;;;;0.93;0.40;;;;;;;10.09;76.63;98677.03;5092109;28;41843;-80
2023/04/02 08:21:43;;;;;;;0.40;0.40;;;;;;;10.29;77.02;98689.00;5075349;28;42733;-80
2023/04/02 08:24:11;;;;;;;0.30;0.30;;;;;;;10.48;77.50;98706.38;5092067;28;42963;-83
2023/04/02 08:26:39;;;;;;;0.50;0.50;;;;;;;10.47;76.16;98710.81;5075405;28;38687;-86
2023/04/02 08:29:07;;;;;;;0.40;0.40;;;;;;;10.58;76.24;98723.34;5091953;28;41674;-82
2023/04/02 08:31:36;;;;;;;0.40;0.40;;;;;;;10.38;75.56;98725.50;5075257;28;41828;-84
2023/04/02 08:34:04;;;;;;;0.30;0.30;;;;;;;10.31;75.79;98728.63;5091698;28;42273;-80
2023/04/02 08:36:35;;;;;;;1.33;0.40;;;;;;;10.39;75.56;98742.19;5075515;28;39123;-82
2023/04/02 08:39:04;;;;;;;0.40;0.40;;;;;;;10.12;75.36;98723.63;5091342;28;41442;-86
2023/04/02 08:41:38;;;;;;;1.90;0.40;;;;;;;10.11;75.45;98737.78;5075507;28;41843;-83
2023/04/02 08:44:17;;;;;;;0.50;0.40;;;;;;;10.22;75.58;98738.00;5091950;28;41451;-79
2023/04/02 08:46:52;;;;;;;0.33;0.33;;;;;;;10.43;75.51;98757.81;5089961;28;39797;-82
2023/04/02 08:49:27;;;;;;;1.30;0.30;;;;;;;10.55;75.55;98756.19;5092507;28;40823;-83
2023/04/02 08:51:55;;;;;;;0.40;0.40;;;;;;;10.56;74.83;98754.38;5076313;28;42949;-82
2023/04/02 08:54:27;;;;;;;0.50;0.50;;;;;;;10.58;73.76;98784.25;5076578;28;42016;-84
2023/04/02 08:56:59;;;;;;;0.60;0.50;;;;;;;10.48;73.34;98788.44;5090582;28;40078;-88
2023/04/02 08:59:33;;;;;;;0.30;0.30;;;;;;;10.43;73.09;98781.63;5075801;28;41888;-84
2023/04/02 09:02:19;;;;;;;0.40;0.40;;;;;;;10.44;73.01;98804.50;5093497;28;42894;-83
2023/04/02 09:04:47;;;;;;;0.50;0.50;;;;;;;10.39;73.08;98788.06;5092771;28;42190;-83
2023/04/02 09:07:16;;;;;;;0.37;0.37;;;;;;;10.48;72.46;98799.88;5092057;28;38802;-82
2023/04/02 09:09:48;;;;;;;0.60;0.40;;;;;;;10.50;71.43;98813.88;5091684;28;41505;-84
2023/04/02 09:12:19;;;;;;;2.10;0.43;;;;;;;10.50;71.34;98823.63;5074978;28;42855;-86
2023/04/02 09:15:03;;;;;;;0.30;0.30;;;;;;;10.59;71.22;98817.75;5074062;28;40934;-82
2023/04/02 09:17:34;;;;;;;0.60;0.50;;;;;;;10.43;71.01;98762.25;5075589;28;20211;-80
2023/04/02 09:20:15;;;;;;;0.40;0.40;;;;;;;10.82;70.09;98840.97;5090986;28;41914;-82
2023/04/02 09:22:45;;;;;;;0.50;0.43;;;;;;;10.82;69.32;98840.97;5074305;28;41880;-80
2023/04/02 09:25:18;;;;;;;0.50;0.50;;;;;;;10.76;68.72;98846.63;5090802;28;42417;-83
2023/04/02 09:27:48;;;;;;;1.13;0.30;;;;;;;10.79;68.12;98860.56;5088190;28;39658;-83
2023/04/02 09:30:30;;;;;;;0.40;0.40;;;;;;;10.66;68.78;98864.91;5087931;28;41622;-82
2023/04/02 09:33:01;;;;;;;0.50;0.50;;;;;;;10.77;69.02;98864.22;5090881;28;42060;-82
2023/04/02 09:35:31;;;;;;;0.40;0.40;;;;;;;10.94;68.58;98866.69;5091223;28;41345;-85
2023/04/02 09:38:16;;;;;;;0.50;0.40;;;;;;;11.11;67.62;98890.31;5074102;28;38709;-83
2023/04/02 09:40:48;;;;;;;0.40;0.40;;;;;;;11.28;66.28;98886.56;5074443;28;42759;-83
2023/04/02 09:43:17;;;;;;;0.43;0.43;;;;;;;11.19;65.62;98859.81;5091097;28;43106;-81
2023/04/02 09:45:57;;;;;;;0.63;0.40;;;;;;;11.37;66.09;98895.75;5091208;28;42312;-83
2023/04/02 09:48:30;;;;;;;0.40;0.40;;;;;;;11.23;66.32;98899.28;5089108;28;40091;-87
2023/04/02 09:51:06;;;;;;;0.87;0.50;;;;;;;11.15;64.28;98918.31;5074674;28;40553;-83
2023/04/02 09:53:36;;;;;;;0.40;0.40;;;;;;;11.24;65.18;98918.69;5088836;28;43665;-79
2023/04/02 09:56:09;;;;;;;1.20;0.60;;;;;;;11.42;66.03;98904.22;5073994;28;41608;-82
2023/04/02 09:58:37;;;;;;;0.50;0.50;;;;;;;11.67;65.38;98914.06;5090889;28;39101;-87
2023/04/02 10:01:07;;;;;;;0.50;0.50;;;;;;;11.81;65.49;98911.41;5091449;28;41786;-84
2023/04/02 10:03:36;;;;;;;0.80;0.60;;;;;;;12.17;64.92;98929.31;5074077;28;41752;-85
2023/04/02 10:06:09;;;;;;;0.70;0.70;;;;;;;12.43;63.59;98940.81;5073774;28;41386;-81
2023/04/02 10:08:40;;;;;;;1.00;1.00;;;;;;;12.43;62.45;98946.13;5088641;28;40867;-82
2023/04/02 10:11:12;;;;;;;1.93;1.80;;;;;;;12.64;62.57;98943.78;5092180;28;41512;-83
2023/04/02 10:13:48;;;;;;;0.60;0.60;;;;;;;12.57;61.04;98946.88;5074281;28;41820;-84
2023/04/02 10:16:20;;;;;;;0.57;0.57;;;;;;;12.48;60.18;98968.75;5073926;28;41156;-83
2023/04/02 10:18:54;;;;;;;0.43;0.43;;;;;;;12.52;60.43;98948.97;5090617;28;40611;-82
2023/04/02 10:21:26;;;;;;;0.60;0.60;;;;;;;12.72;60.26;98981.31;5077432;28;40970;-79
2023/04/02 10:23:57;;;;;;;0.50;0.50;;;;;;;12.72;60.25;98983.97;5094340;28;43921;-82
2023/04/02 10:26:42;;;;;;;0.47;0.47;;;;;;;12.38;60.03;98965.00;5078138;28;42441;-82
2023/04/02 10:29:26;;;;;;;0.60;0.60;;;;;;;12.44;60.59;98985.84;5094229;28;39888;-86
2023/04/02 10:32:01;;;;;;;0.50;0.50;;;;;;;12.23;61.39;98971.38;5078541;28;40786;-81
2023/04/02 10:34:40;;;;;;;0.60;0.60;;;;;;;12.33;61.17;98988.41;5077349;28;42123;-84
2023/04/02 10:37:24;;;;;;;0.60;0.60;;;;;;;12.33;60.89;98980.44;5078545;28;40725;-84
2023/04/02 10:39:57;;;;;;;0.87;0.67;;;;;;;12.17;60.61;98993.88;5077805;28;38854;-82
2023/04/02 10:42:36;;;;;;;0.63;0.60;;;;;;;12.31;61.14;98990.28;5077435;28;40621;-84
2023/04/02 10:45:19;;;;;;;0.77;0.47;;;;;;;12.27;61.18;98983.47;5093450;28;41789;-79
2023/04/02 10:47:58;;;;;;;0.50;0.50;;;;;;;12.39;61.16;99003.91;5093963;28;41974;-81
2023/04/02 10:50:38;;;;;;;0.67;0.60;;;;;;;12.40;60.49;99010.91;5090633;28;40082;-82
2023/04/02 10:53:14;;;;;;;0.60;0.60;;;;;;;12.35;60.65;99010.38;5076526;28;40763;-86
2023/04/02 10:55:44;;;;;;;1.83;0.70;;;;;;;12.35;61.64;98998.91;5090179;28;43422;-88
2023/04/02 10:58:24;;;;;;;0.70;0.60;;;;;;;12.21;62.58;98967.97;5075986;28;41490;-84
2023/04/02 11:00:56;;;;;;;0.50;0.50;;;;;;;12.33;62.73;98998.16;5091005;28;40076;-80
2023/04/02 11:03:32;;;;;;;1.03;0.63;;;;;;;12.32;62.63;99017.72;5093224;28;40975;-79
2023/04/02 11:06:11;;;;;;;0.93;0.60;;;;;;;12.10;62.93;99010.31;5076712;28;41929;-79
2023/04/02 11:08:42;;;;;;;0.60;0.60;;;;;;;11.72;63.46;98992.44;5076225;28;41079;-82
2023/04/02 11:11:13;;;;;;;0.80;0.80;;;;;;;11.75;64.24;99024.06;5090427;28;40124;-84
2023/04/02 11:13:50;;;;;;;0.50;0.50;;;;;;;11.61;64.77;99016.16;5076347;28;40626;-86
2023/04/02 11:16:18;;;;;;;0.87;0.80;;;;;;;11.53;65.14;99029.88;5093213;28;42964;-84
2023/04/02 11:19:20;;;;;;;0.60;0.60;;;;;;;11.51;65.46;99017.66;5076084;28;41136;-83
2023/04/02 11:21:54;;;;;;;0.50;0.50;;;;;;;11.46;66.02;99011.81;5093293;28;40387;-83
2023/04/02 11:24:35;;;;;;;0.60;0.60;;;;;;;11.49;65.38;99043.44;5092112;28;42686;-82
2023/04/02 11:27:24;;;;;;;0.70;0.70;;;;;;;12.14;65.75;99031.25;5093310;28;41560;-81
2023/04/02 11:29:57;;;;;;;0.70;0.70;;;;;;;12.64;65.01;99042.09;5075529;28;41377;-83
2023/04/02 11:32:33;;;;;;;0.70;0.70;;;;;;;12.47;63.82;99038.78;5076340;28;39018;-85
2023/04/02 11:35:27;;;;;;;0.80;0.77;;;;;;;12.53;63.03;99062.25;5076111;28;42139;-89
2023/04/02 11:37:57;;;;;;;0.70;0.70;;;;;;;12.34;62.78;99052.97;5075991;28;42458;-82
2023/04/02 11:40:49;;;;;;;0.70;0.70;;;;;;;12.42;63.04;99055.97;5076232;28;41164;-85
2023/04/02 11:43:50;;;;;;;0.67;0.63;;;;;;;12.69;61.44;99093.97;5092634;28;39188;-86
2023/04/02 11:46:41;;;;;;;0.70;0.57;;;;;;;12.85;61.82;99085.81;5075970;28;40696;-79
2023/04/02 11:49:48;;;;;;;0.70;0.70;;;;;;;13.00;60.58;99099.84;5093651;28;42811;-85
2023/04/02 11:52:25;;;;;;;1.17;0.90;;;;;;;13.09;59.50;99108.06;5090614;28;42446;-85
2023/04/02 11:55:23;;;;;;;1.00;0.67;;;;;;;12.77;57.11;99120.03;5092089;28;40053;-85
2023/04/02 11:58:32;;;;;;;0.53;0.53;;;;;;;12.92;59.51;99103.91;5093533;28;42702;-82
2023/04/02 12:01:39;;;;;;;0.67;0.67;;;;;;;12.55;59.60;99105.53;5092556;28;43585;-80
2023/04/02 12:05:02;;;;;;;0.67;0.67;;;;;;;12.24;60.66;99103.16;5075436;28;42025;-85
2023/04/02 12:08:03;;;;;;;1.30;0.70;;;;;;;11.96;62.00;99104.13;5092543;28;39166;-86
2023/04/02 12:10:52;;;;;;;1.20;0.70;;;;;;;11.64;63.27;99095.50;5089555;28;41731;-82
2023/04/02 12:13:21;;;;;;;0.80;0.80;;;;;;;11.58;64.59;99095.91;5092415;28;41462;-81